Terminal Aerodrome Forecast
Issued by NWS

Home | Current Version | Previous Version | Text Only | Print | Product List | Glossary On
Versions: 1 2 3 4 5 6 7 8 9 10 11 12 13 14 15 16 17 18 19 20 21 22 23 24 25 26 27 28 29 30 31 32 33 34 35 36 37 38 39 40 41 42 43 44
557
FTAK31 PAFA 241353 AAA
TAFAUN
TAF AMD
PAUN 241353Z 2414/2512 21013G20KT P6SM VCSH OVC027
     FM241600 25010G16KT P6SM -SHRA SCT015 BKN025 OVC050
     FM250700 18006KT 5SM -RA BR SCT015 OVC025=

USA.gov is the U.S. government's official web portal to all federal, state and local government web resources and services.